Bango, Nevada Weather observations

Data are for 10 minute period ending at time listed.
 Day   Time    Ave.   Ave.  Ave.  Vector   Max.   Stn.    Total    Solar   Ave.  
  of    of     Air    Rel.  Wind   Wind    Wind   Baro.  Precip.   Rad.    Soil  
Year   Day     Temp.  Hum.  Speed  Dir.    Gust   Pres.                    Temp. 
2014   (PST)    F      %     mph   deg.    mph     mb.     in.     W/m2     F    
--------------------------------------------------------------------------------- 
 325   21:30   46.9    57    7.5   163      9.6   873.8    0.00       0     9.1  
 325   21:40   45.9    58    8.5   177     10.5   873.7    0.00       0     9.0  
 325   21:50   45.6    56   10.3   180     12.3   873.6    0.00       0     9.0  
 325   22:00   46.2    54    9.9   174     11.4   873.3    0.00       0     9.0  
 325   22:10   45.7    56   11.2   185     13.2   872.9    0.00       0     9.0  
 325   22:20   45.3    56    8.5   155     13.2   872.7    0.00       0     8.9  
 325   22:30   44.6    59    4.2   119      8.7   873.0    0.00       0     8.9  
 325   22:40   44.6    58    2.3   237      6.0   873.5    0.00       0     8.9  
 325   22:50   43.1    60    5.7   233      6.9   873.6    0.00       0     8.9  
 325   23:00   43.9    57    7.0   233      8.7   873.9    0.00       0     8.8  
 325   23:10   43.4    58    6.7   225      7.8   874.1    0.00       0     8.8  
 325   23:20   42.4    60    7.5   253      9.6   874.3    0.00       0     8.8  
 325   23:30   42.8    59    5.0   237      7.8   874.3    0.00       0     8.8  
 325   23:40   42.2    61    2.6   134      5.1   874.4    0.00       0     8.8  
 325   23:50   42.6    60    4.1   119      6.0   874.4    0.00       0     8.7  
 326    0:00   42.8    60    5.9   151      8.7   874.0    0.00       0     8.7  
 326    0:10   42.5    61    5.7   187      9.6   873.8    0.00       0     8.7  
 326    0:20   41.5    64    4.4   158      6.9   873.6    0.00       0     8.6  
 326    0:30   41.0    65    5.7   246      9.6   873.7    0.00       0     8.6  
 326    0:40   41.8    63    4.8   213      6.0   873.6    0.00       0     8.5  
 326    0:50   41.8    63    3.7   220      5.1   873.5    0.00       0     8.5  
 326    1:00   43.0    60    3.9   220      5.1   873.4    0.00       0     8.5  
 326    1:10   42.5    62    4.0   199      5.1   873.3    0.00       0     8.4  
 326    1:20   42.7    63    6.6   200      8.7   873.0    0.00       0     8.4  
 326    1:30   43.0    62    4.4   169     10.5   873.0    0.00       0     8.4  
 326    1:40   44.0    60   11.3   230     13.2   873.1    0.00       0     8.3  
 326    1:50   45.1    58    8.3   220     12.3   873.0    0.00       0     8.3  
 326    2:00   45.0    59    5.9   232      8.7   872.8    0.00       0     8.3  
 326    2:10   44.6    59    5.6   223      6.9   872.7    0.00       0     8.2  
 326    2:20   43.1    62    3.6   220      6.0   872.6    0.00       0     8.2  
 326    2:30   42.5    63    5.4   246      8.7   872.6    0.00       0     8.2  
 326    2:40   41.9    64    4.7   211      8.7   872.6    0.00       0     8.2  
 326    2:50   42.4    64    4.8    96      6.9   872.6    0.00       0     8.1  
 326    3:00   41.8    66    4.5   125      6.0   872.2    0.00       0     8.1  
 326    3:10   41.3    67    3.5   147      6.0   872.0    0.00       0     8.1  
 326    3:20   41.2    68    1.6   125      4.2   871.8    0.00       0     8.1  
 326    3:30   41.2    68    1.8   206      4.2   871.7    0.00       0     8.0  
 326    3:40   42.0    65    4.0   217      8.7   871.5    0.00       0     8.0  
 326    3:50   43.4    63    5.7   226      8.7   871.3    0.00       0     8.0  
 326    4:00   43.9    63    8.8   226     12.3   871.3    0.00       0     8.0  
 326    4:10   45.2    62   10.0   214     13.2   871.3    0.00       0     7.9  
 326    4:20   46.3    61    9.9   180     11.4   871.0    0.00       0     7.9  
 326    4:30   46.1    61    8.3   169     11.4   870.7    0.00       0     7.9  
 326    4:40   47.8    58   11.5   180     13.2   870.7    0.00       0     7.9  
 326    4:50   47.8    57    7.2   193     12.3   870.7    0.00       0     7.8  
 326    5:00   46.8    59    7.6   206     10.5   870.8    0.00       0     7.8  
 326    5:10   45.4    62    8.2   214     11.4   870.9    0.00       0     7.8  
 326    5:20   46.1    61    5.3   219      7.8   870.9    0.00       0     7.8  
 326    5:30   47.3    59    2.8   226      4.2   870.9    0.00       0     7.7  
 326    5:40   47.2    58    3.1   195      6.0   870.9    0.00       0     7.7  
 326    5:50   44.1    64    5.7   198      8.7   870.9    0.00       0     7.7  
 326    6:00   45.0    64    7.7   199      9.6   871.0    0.00       0     7.7  
 326    6:10   46.5    64    9.3   200     19.4   871.0    0.00       0     7.6  
 326    6:20   53.3    55    8.5   209     16.7   871.0    0.00       0     7.6  
 326    6:30   53.5    55    9.7   214     17.6   871.0    0.00       0     7.6  
 326    6:40   54.3    54    7.5   220     12.3   871.0    0.00       0     7.6  
 326    6:50   54.7    54    5.0   204      9.6   870.6    0.00       1     7.5  
 326    7:00   53.7    55    7.3   162     13.2   870.4    0.00       2     7.6  
 326    7:10   54.3    56    9.8   184     13.2   870.4    0.00       6     7.5  
 326    7:20   55.7    55   11.8   194     22.1   870.4    0.00       7     7.5  
 326    7:30   55.8    56   14.1   198     23.0   870.3    0.00      16     7.5  
 326    7:40   55.2    57   10.5   187     14.9   870.2    0.00      28     7.5  
 326    7:50   55.0    58   11.3   181     17.6   870.2    0.00      22     7.5  
 326    8:00   54.2    61    8.9   201     14.1   870.3    0.00      27     7.5  
 326    8:10   54.0    63    6.9   194     10.5   870.4    0.00      45     7.5  
 326    8:20   53.9    63    4.9   168      8.7   870.3    0.00      38     7.5  
 326    8:30   53.5    63    5.4   138      9.6   870.2    0.00      42     7.5  
 326    8:40   54.0    62    7.8   181     17.6   870.2    0.00      49     7.5  
 326    8:50   56.4    57   18.8   227     26.6   870.0    0.00     148     7.5  
 326    9:00   58.4    53   22.0   221     34.6   869.8    0.00     351     7.5  
 326    9:10   59.3    51   28.1   219     36.4   869.4    0.00     403     7.5  
 326    9:20   59.9    50   27.8   219     37.3   869.3    0.00     461     7.5  
 326    9:30   60.5    48   27.9   221     38.2   869.3    0.00     465     7.5  
 326    9:40   61.1    47   30.2   223     43.6   869.5    0.00     479     7.6  
 326    9:50   61.6    46   26.8   228     34.6   869.7    0.00     512     7.6  
 326   10:00   61.9    46   27.2   228     36.4   869.6    0.00     549     7.6  
 326   10:10   62.6    44   23.9   224     32.8   869.6    0.00     572     7.6  
 326   10:20   62.5    44   29.1   222     38.2   869.5    0.00     539     7.6  
 326   10:30   63.3    42   28.0   229     35.5   869.6    0.00     558     7.7  
 326   10:40   63.7    41   26.7   234     35.5   869.7    0.00     518     7.7  
 326   10:50   64.2    39   25.9   238     39.1   869.8    0.00     425     7.8  
 326   11:00   65.2    35   24.8   246     34.6   869.8    0.00     580     7.8  
 326   11:10   65.6    32   28.0   253     41.8   869.6    0.00     552     7.9  
 326   11:20   64.9    33   25.5   263     33.7   869.6    0.00     444     8.0  
 326   11:30   65.6    30   24.6   260     35.5   869.4    0.00     422     8.0  
 326   11:40   65.2    30   28.6   266     37.3   869.4    0.00     610     8.1  
 326   11:50   65.3    30   27.5   263     36.4   869.4    0.00     682     8.2  
 326   12:00   66.0    29   23.1   261     33.7   869.5    0.00     685     8.3  
 326   12:10   66.0    29   24.5   267     33.7   869.6    0.00     679     8.3  
 326   12:20   65.0    28   26.5   270     36.4   869.7    0.00     616     8.4  
 326   12:30   64.9    27   24.0   271     32.8   869.8    0.00     559     8.5  
 326   12:40   64.5    26   25.6   270     36.4   869.9    0.00     484     8.6  
 326   12:50   64.6    24   25.8   262     40.9   869.9    0.00     403     8.7  
 326   13:00   64.1    24   24.8   275     34.6   869.8    0.00     411     8.8  
 326   13:10   63.6    25   26.8   270     36.4   869.8    0.00     266     8.9  
 326   13:20   62.9    24   30.8   263     44.5   869.8    0.00     279     9.0  
 326   13:30   62.7    25   30.3   258     41.8   870.0    0.00     286     9.1  
 326   13:40   62.5    26   30.5   262     40.0   870.0    0.00     319     9.3  
 326   13:50   62.6    27   30.6   272     44.5   870.1    0.00     474     9.4  
 326   14:00   62.7    26   32.8   274     46.2   870.1    0.00     438     9.5  
 326   14:10   61.7    27   33.6   259     47.1   870.4    0.00     382     9.6  
 326   14:20   61.4    28   31.6   267     40.9   870.5    0.00     369     9.7  
 326   14:30   60.9    29   34.3   266     43.6   870.7    0.00     217     9.8  
 326   14:40   59.5    32   29.6   272     44.5   870.9    0.00      99     9.9  
 326   14:50   57.4    44   24.7   303     37.3   870.8    0.00     194    10.0  
 326   15:00   54.0    56   24.6   310     32.8   871.0    0.00     107    10.1  
 326   15:10   53.7    55   22.9   312     32.8   871.6    0.00     116    10.2  
 326   15:20   53.2    53   25.7   308     34.6   871.5    0.00      73    10.2  
 326   15:30   52.8    54   23.5   299     31.9   871.9    0.00      38    10.3  
 326   15:40   51.2    64   22.8   309     32.8   872.3    0.00      23    10.4  
 326   15:50   50.6    66   20.6   313     27.5   872.7    0.00      50    10.5  
 326   16:00   49.4    69   18.4   319     25.7   872.9    0.00      34    10.5  
 326   16:10   48.6    69   19.1   323     26.6   873.3    0.00      37    10.5  
 326   16:20   48.3    67   17.0   310     26.6   873.5    0.00      24    10.6  
 326   16:30   50.1    55   22.1   285     33.7   873.5    0.00      11    10.6  
 326   16:40   50.1    49   22.2   287     31.9   873.7    0.00       4    10.7  
 326   16:50   49.9    44   22.5   291     31.0   873.9    0.00       2    10.7  
 326   17:00   49.5    42   20.7   298     31.0   874.3    0.00       0    10.7  
 326   17:10   49.1    40   18.3   296     24.8   874.7    0.00       0    10.7  
 326   17:20   49.1    38   18.2   289     25.7   875.0    0.00       0    10.7  
 326   17:30   49.0    39   20.2   290     29.2   875.1    0.00       0    10.7  
 326   17:40   48.8    40   19.9   288     29.2   875.2    0.00       0    10.7  
 326   17:50   48.5    41   19.4   289     26.6   875.5    0.00       0    10.6  
 326   18:00   48.0    43   17.1   292     25.7   875.6    0.00       0    10.6  
 326   18:10   47.8    44   17.0   290     23.0   875.7    0.00       0    10.6  
 326   18:20   47.8    44   16.3   287     22.1   875.8    0.00       0    10.6  
 326   18:30   47.2    45   12.7   293     17.6   876.1    0.00       0    10.6  
 326   18:40   46.8    46   13.3   294     18.5   876.2    0.00       0    10.5  
 326   18:50   45.8    50   11.3   302     15.8   876.6    0.00       0    10.5  
 326   19:00   44.5    54    9.2   308     14.1   876.9    0.00       0    10.5  
 326   19:10   44.3    56   11.9   304     16.7   877.1    0.00       0    10.4  
 326   19:20   44.0    56   11.4   301     15.8   877.4    0.00       0    10.4  
 326   19:30   43.6    56   10.5   300     14.1   877.6    0.00       0    10.4  
 326   19:40   43.6    56   10.8   301     14.1   877.9    0.00       0    10.3  
 326   19:50   43.3    57    9.5   303     14.1   878.1    0.00       0    10.3  
 326   20:00   43.1    57   10.2   302     14.1   878.2    0.00       0    10.2  
 326   20:10   42.8    58    8.9   298     11.4   878.3    0.00       0    10.2  
 326   20:20   43.0    58    9.7   296     12.3   878.3    0.00       0    10.2  
 326   20:30   43.5    57   10.2   298     13.2   878.5    0.00       0    10.1  
 326   20:40   43.6    57   11.0   290     14.9   878.6    0.00       0    10.1  
 326   20:50   43.7    57   10.9   292     14.9   878.8    0.00       0    10.0  
 326   21:00   43.3    59   11.1   303     14.1   879.0    0.00       0    10.0  
 326   21:10   42.6    60   12.3   306     16.7   879.1    0.00       0     9.9  
 326   21:20   42.4    60   11.8   294     16.7   879.2    0.00       0     9.9  

Return to Garden Spring, Nevada graphs page.


Western Regional Climate Center,wrcc@dri.edu